createdAt,value
2019-03-18T00:04:07.646Z,99520.32
2019-03-18T00:06:58.863Z,99521.91
2019-03-18T00:09:48.741Z,99522.02
2019-03-18T00:12:39.489Z,99528.66
2019-03-18T00:15:49.298Z,99528.52
2019-03-18T00:18:58.265Z,99538.27
2019-03-18T00:21:48.254Z,99531.91
2019-03-18T00:24:19.249Z,99542.63
2019-03-18T00:26:50.952Z,99527.14
2019-03-18T00:29:55.082Z,99544.79
2019-03-18T00:32:33.233Z,99547.64
2019-03-18T00:35:23.207Z,99547.64
2019-03-18T00:38:33.485Z,99551.34
2019-03-18T00:41:23.377Z,99557.34
2019-03-18T00:43:55.068Z,99554.58
2019-03-18T00:46:26.033Z,99559.89
2019-03-18T00:48:59.156Z,99562.08
2019-03-18T00:51:48.887Z,99561.17
2019-03-18T00:54:38.831Z,99557.73
2019-03-18T00:57:09.719Z,99560.86
2019-03-18T00:59:43.676Z,99557.63
2019-03-18T01:02:14.569Z,99552.41
2019-03-18T01:04:45.384Z,99551.15
2019-03-18T01:13:01.381Z,99560.41
2019-03-18T01:15:51.318Z,99554.80
2019-03-18T01:18:23.075Z,99558.16
2019-03-18T01:21:13.036Z,99558.37
2019-03-18T01:23:43.856Z,99557.77
2019-03-18T01:26:15.533Z,99561.30
2019-03-18T01:29:05.159Z,99562.93
2019-03-18T01:31:55.813Z,99562.02
2019-03-18T01:34:26.728Z,99559.95
2019-03-18T01:39:47.323Z,99553.53
2019-03-18T01:42:18.160Z,99549.98
2019-03-18T01:45:08.137Z,99554.34
2019-03-18T01:47:57.690Z,99556.17
2019-03-18T01:54:01.226Z,99563.51
2019-03-18T01:56:41.754Z,99564.17
2019-03-18T02:02:13.159Z,99571.88
2019-03-18T02:05:15.999Z,99588.48
2019-03-18T02:08:06.747Z,99570.22
2019-03-18T02:10:38.453Z,99566.40
2019-03-18T02:13:09.379Z,99569.42
2019-03-18T02:15:52.603Z,99561.85
2019-03-18T02:21:35.727Z,99562.25
2019-03-18T02:24:25.690Z,99574.93
2019-03-18T02:27:15.641Z,99572.55
2019-03-18T02:30:25.963Z,99579.93
2019-03-18T02:33:16.812Z,99574.25
2019-03-18T02:35:48.661Z,99581.64
2019-03-18T02:38:19.623Z,99582.61
2019-03-18T02:47:25.634Z,99594.45
2019-03-18T02:49:58.284Z,99598.66
2019-03-18T02:53:09.868Z,99591.68
2019-03-18T02:55:46.625Z,99595.75
2019-03-18T02:58:36.598Z,99584.80
2019-03-18T03:07:22.712Z,99576.23
2019-03-18T03:10:29.820Z,99593.11
2019-03-18T03:13:16.766Z,99594.23
2019-03-18T03:16:08.773Z,99594.25
2019-03-18T03:18:53.245Z,99589.02
2019-03-18T03:24:16.454Z,99584.30
2019-03-18T03:35:59.460Z,99616.90
2019-03-18T03:39:11.927Z,99621.05
2019-03-18T03:41:33.342Z,99616.80
2019-03-18T03:44:07.012Z,99625.67
2019-03-18T03:46:43.661Z,99634.48
2019-03-18T03:52:27.251Z,99634.99
2019-03-18T03:54:58.257Z,99636.70
2019-03-18T03:57:50.605Z,99645.48
2019-03-18T04:00:39.587Z,99649.00
2019-03-18T04:03:38.165Z,99653.70
2019-03-18T04:06:16.979Z,99658.79
2019-03-18T04:09:07.257Z,99658.79
2019-03-18T04:11:38.085Z,99667.14
2019-03-18T04:14:08.939Z,99651.05
2019-03-18T04:17:02.235Z,99651.05
2019-03-18T04:19:32.302Z,99660.35
2019-03-18T04:22:03.215Z,99661.47
2019-03-18T04:24:52.226Z,99653.20
2019-03-18T04:27:42.121Z,99661.00
2019-03-18T04:30:32.132Z,99661.00
2019-03-18T04:33:12.611Z,99652.81
2019-03-18T04:36:14.222Z,99653.99
2019-03-18T04:38:44.266Z,99652.45
2019-03-18T04:41:34.055Z,99679.52
2019-03-18T04:44:23.842Z,99675.77
2019-03-18T04:47:16.493Z,99675.31
2019-03-18T04:49:46.513Z,99684.92
2019-03-18T04:55:07.123Z,99697.44
2019-03-18T04:57:56.189Z,99688.41
2019-03-18T05:06:18.334Z,99685.47
2019-03-18T05:09:10.093Z,99693.71
2019-03-18T05:11:56.339Z,99700.41
2019-03-18T05:14:33.405Z,99702.41
2019-03-18T05:17:05.178Z,99705.22
2019-03-18T05:19:54.251Z,99711.51
2019-03-18T05:22:25.244Z,99718.37
2019-03-18T05:25:15.184Z,99718.37
2019-03-18T05:27:46.085Z,99718.86
2019-03-18T05:30:36.048Z,99710.98
2019-03-18T05:33:06.128Z,99716.67
2019-03-18T05:35:54.929Z,99716.51
2019-03-18T05:39:06.623Z,99727.13
2019-03-18T05:41:28.034Z,99731.45
2019-03-18T05:44:17.089Z,99736.11
2019-03-18T05:46:47.138Z,99735.84
2019-03-18T05:49:49.996Z,99739.97
2019-03-18T05:55:08.326Z,99749.94
2019-03-18T05:57:38.290Z,99749.77
2019-03-18T06:00:08.458Z,99750.95
2019-03-18T06:02:57.461Z,99749.84
2019-03-18T06:05:29.318Z,99752.14
2019-03-18T06:07:59.294Z,99758.20
2019-03-18T06:11:08.223Z,99761.94
2019-03-18T06:16:47.020Z,99768.97
2019-03-18T06:19:19.239Z,99776.48
2019-03-18T06:21:49.273Z,99783.49
2019-03-18T06:24:38.305Z,99785.81
2019-03-18T06:27:09.294Z,99785.81
2019-03-18T06:32:41.222Z,99794.54
2019-03-18T06:35:13.070Z,99789.13
2019-03-18T06:37:43.191Z,99793.55
2019-03-18T06:40:50.846Z,99796.17
2019-03-18T06:43:20.838Z,99793.83
2019-03-18T06:46:09.855Z,99806.25
2019-03-18T06:51:50.210Z,99811.76
2019-03-18T06:54:43.515Z,99808.01
2019-03-18T07:00:08.305Z,99807.40
2019-03-18T07:02:58.872Z,99806.19
2019-03-18T07:05:49.968Z,99803.02
2019-03-18T07:08:42.172Z,99802.57
2019-03-18T07:11:31.257Z,99798.70
2019-03-18T07:14:32.684Z,99808.53
2019-03-18T07:20:27.071Z,99817.16
2019-03-18T07:23:17.008Z,99821.76
2019-03-18T07:26:06.945Z,99825.82
2019-03-18T07:28:36.997Z,99827.87
2019-03-18T07:34:03.129Z,99828.11
2019-03-18T07:39:47.750Z,99840.53
2019-03-18T07:42:27.942Z,99846.45
2019-03-18T07:44:58.899Z,99844.95
2019-03-18T07:47:52.873Z,99851.86
2019-03-18T07:50:43.262Z,99865.11
2019-03-18T07:53:34.752Z,99863.91
2019-03-18T08:02:28.879Z,99870.30
2019-03-18T08:05:37.890Z,99862.09
2019-03-18T08:08:11.336Z,99883.23
2019-03-18T08:17:42.695Z,99903.49
2019-03-18T08:23:46.969Z,99912.34
2019-03-18T08:26:36.562Z,99921.55
2019-03-18T08:29:27.326Z,99923.58
2019-03-18T08:31:58.141Z,99929.53
2019-03-18T08:34:29.894Z,99936.05
2019-03-18T08:37:21.066Z,99935.94
2019-03-18T08:39:55.008Z,99937.66
2019-03-18T08:42:26.636Z,99930.95
2019-03-18T08:48:00.649Z,99934.94
2019-03-18T08:50:32.369Z,99935.66
2019-03-18T08:53:22.258Z,99933.48
2019-03-18T08:55:53.925Z,99938.99
2019-03-18T08:58:25.960Z,99944.20
2019-03-18T09:01:15.974Z,99953.52
2019-03-18T09:03:47.032Z,99944.11
2019-03-18T09:09:18.629Z,99959.19
2019-03-18T09:11:50.448Z,99955.48
2019-03-18T09:14:40.432Z,99955.83
2019-03-18T09:17:31.437Z,99959.09
2019-03-18T09:20:21.522Z,99958.84
2019-03-18T09:22:52.499Z,99968.53
2019-03-18T09:25:42.461Z,99970.03
2019-03-18T09:28:13.411Z,99975.42
2019-03-18T09:31:03.135Z,99977.39
2019-03-18T09:33:36.554Z,99974.75
2019-03-18T09:36:50.390Z,99983.04
2019-03-18T09:39:59.589Z,99981.33
2019-03-18T09:43:11.380Z,99989.52
2019-03-18T09:46:04.471Z,99990.44
2019-03-18T09:52:02.254Z,100002.20
2019-03-18T09:54:38.691Z,99999.69
2019-03-18T09:57:31.372Z,100006.00
2019-03-18T10:00:23.202Z,100005.16
2019-03-18T10:03:13.159Z,100001.55
2019-03-18T10:06:04.085Z,100005.48
2019-03-18T10:09:13.042Z,100004.88
2019-03-18T10:11:44.000Z,100017.21
2019-03-18T10:17:09.817Z,100023.57
2019-03-18T10:19:57.325Z,100020.73
2019-03-18T10:22:47.298Z,100023.21
2019-03-18T10:25:18.093Z,100027.86
2019-03-18T10:30:34.300Z,100046.11
2019-03-18T10:33:23.989Z,100031.41
2019-03-18T10:36:14.007Z,100030.04
2019-03-18T10:42:04.753Z,100025.30
2019-03-18T10:47:32.351Z,100023.96
2019-03-18T10:50:03.410Z,100027.37
2019-03-18T10:52:53.357Z,100025.02
2019-03-18T10:55:43.315Z,100019.45
2019-03-18T10:58:33.249Z,100018.77
2019-03-18T11:01:04.245Z,100018.52
2019-03-18T11:06:46.444Z,100012.87
2019-03-18T11:09:17.340Z,100019.45
2019-03-18T11:14:34.659Z,100037.69
2019-03-18T11:17:29.256Z,100071.25
2019-03-18T11:23:46.680Z,100070.24
2019-03-18T11:26:56.883Z,100070.50
2019-03-18T11:29:49.267Z,100077.70
2019-03-18T11:32:20.139Z,100071.21
2019-03-18T11:41:17.357Z,100056.21
2019-03-18T11:43:47.681Z,100046.22
2019-03-18T11:47:02.955Z,100047.73
2019-03-18T11:53:14.825Z,100050.03
2019-03-18T12:02:03.552Z,100054.35
2019-03-18T12:11:08.571Z,100047.64
2019-03-18T12:14:04.681Z,100038.64
2019-03-18T12:16:56.462Z,100042.12
2019-03-18T12:19:27.769Z,100046.37
2019-03-18T12:25:09.217Z,100047.16
2019-03-18T12:27:41.210Z,100046.48
2019-03-18T12:30:17.368Z,100051.61
2019-03-18T12:33:30.409Z,100057.66
2019-03-18T12:36:01.409Z,100058.83
2019-03-18T12:38:51.393Z,100066.88
2019-03-18T12:44:34.747Z,100056.28
2019-03-18T12:50:11.520Z,100041.55
2019-03-18T12:56:35.354Z,100038.12
2019-03-18T12:59:06.710Z,100038.62
2019-03-18T13:05:13.765Z,100035.01
2019-03-18T13:07:54.203Z,100039.85
2019-03-18T13:13:09.432Z,100036.68
2019-03-18T13:15:40.369Z,100039.24
2019-03-18T13:18:11.300Z,100048.06
2019-03-18T13:20:42.228Z,100049.47
2019-03-18T13:23:50.897Z,100055.81
2019-03-18T13:26:23.552Z,100065.97
2019-03-18T13:28:54.562Z,100070.23
2019-03-18T13:32:04.814Z,100064.36
2019-03-18T13:34:36.603Z,100074.08
2019-03-18T13:37:07.447Z,100046.30
2019-03-18T13:39:38.390Z,100063.98
2019-03-18T13:42:09.316Z,100067.48
2019-03-18T13:48:21.932Z,100068.28
2019-03-18T13:51:20.851Z,100063.56
2019-03-18T13:54:23.062Z,100056.72
2019-03-18T13:57:16.834Z,100056.39
2019-03-18T14:00:08.533Z,100052.84
2019-03-18T14:02:39.481Z,100052.03
2019-03-18T14:05:10.520Z,100058.97
2019-03-18T14:08:11.360Z,100047.50
2019-03-18T14:14:11.529Z,100057.00
2019-03-18T14:17:14.446Z,100053.48
2019-03-18T14:20:15.833Z,100054.75
2019-03-18T14:23:07.566Z,100017.54
2019-03-18T14:25:58.522Z,100048.19
2019-03-18T14:28:48.272Z,100037.09
2019-03-18T14:31:43.344Z,100050.08
2019-03-18T14:34:16.044Z,100051.95
2019-03-18T14:40:36.828Z,100057.59
2019-03-18T14:43:28.937Z,100068.82
2019-03-18T14:49:21.038Z,100064.78
2019-03-18T14:52:04.300Z,100070.94
2019-03-18T15:01:03.571Z,100070.63
2019-03-18T15:09:46.597Z,100079.47
2019-03-18T15:15:22.839Z,100072.61
2019-03-18T15:24:48.441Z,100105.41
2019-03-18T15:30:58.851Z,100129.89
2019-03-18T15:34:04.025Z,100132.11
2019-03-18T15:49:25.192Z,100125.53
2019-03-18T15:55:26.702Z,100116.21
2019-03-18T15:57:57.653Z,100103.48
2019-03-18T16:03:57.597Z,100120.38
2019-03-18T16:09:21.760Z,100102.61
2019-03-18T16:12:12.683Z,100119.86
2019-03-18T16:15:16.098Z,100118.09
2019-03-18T16:21:56.959Z,100132.95
2019-03-18T16:24:49.672Z,100150.02
2019-03-18T16:27:59.934Z,100140.80
2019-03-18T16:30:53.474Z,100148.04
2019-03-18T16:39:24.466Z,100167.44
2019-03-18T16:45:04.704Z,100167.77
2019-03-18T16:47:54.684Z,100170.78
2019-03-18T16:54:07.272Z,100179.32
2019-03-18T17:00:30.026Z,100180.94
2019-03-18T17:06:28.813Z,100185.49
2019-03-18T17:09:21.927Z,100179.99
2019-03-18T17:12:14.466Z,100189.22
2019-03-18T17:14:46.249Z,100190.19
2019-03-18T17:17:54.957Z,100192.53
2019-03-18T17:20:26.736Z,100197.47
2019-03-18T17:23:16.778Z,100211.19
2019-03-18T17:25:47.743Z,100219.09
2019-03-18T17:28:46.751Z,100214.31
2019-03-18T17:31:36.395Z,100217.11
2019-03-18T17:34:26.372Z,100224.77
2019-03-18T17:40:16.701Z,100233.21
2019-03-18T17:43:10.240Z,100242.98
2019-03-18T17:46:21.282Z,100246.05
2019-03-18T17:58:01.271Z,100268.23
2019-03-18T18:00:50.896Z,100272.09
2019-03-18T18:09:32.968Z,100283.64
2019-03-18T18:15:32.801Z,100285.27
2019-03-18T18:18:12.564Z,100288.43
2019-03-18T18:21:05.092Z,100294.95
2019-03-18T18:23:48.708Z,100298.23
2019-03-18T18:26:28.522Z,100298.23
2019-03-18T18:35:25.018Z,100309.50
2019-03-18T18:41:11.222Z,100318.12
2019-03-18T18:44:05.266Z,100316.17
2019-03-18T18:50:11.124Z,100338.75
2019-03-18T18:56:47.433Z,100333.92
2019-03-18T18:59:56.010Z,100342.10
2019-03-18T19:03:05.496Z,100347.12
2019-03-18T19:06:08.359Z,100347.12
2019-03-18T19:11:29.817Z,100361.73
2019-03-18T19:14:03.433Z,100366.46
2019-03-18T19:22:16.976Z,100366.60
2019-03-18T19:27:35.670Z,100376.03
2019-03-18T19:30:23.402Z,100372.47
2019-03-18T19:32:43.395Z,100369.42
2019-03-18T19:35:14.471Z,100369.03
2019-03-18T19:40:56.394Z,100383.80
2019-03-18T19:43:45.114Z,100383.80
2019-03-18T19:46:47.186Z,100389.32
2019-03-18T19:49:38.302Z,100388.56
2019-03-18T19:52:09.260Z,100389.30
2019-03-18T19:54:58.261Z,100386.34
2019-03-18T20:01:00.038Z,100396.17
2019-03-18T20:06:51.324Z,100408.44
2019-03-18T20:09:41.182Z,100403.47
2019-03-18T20:12:34.055Z,100409.64
2019-03-18T20:15:05.280Z,100411.84
2019-03-18T20:20:57.051Z,100422.42
2019-03-18T20:24:00.140Z,100428.41
2019-03-18T20:26:20.765Z,100427.48
2019-03-18T20:37:48.330Z,100438.20
2019-03-18T20:40:18.446Z,100438.03
2019-03-18T20:43:08.321Z,100437.25
2019-03-18T20:45:57.272Z,100438.86
2019-03-18T20:48:28.145Z,100443.91
2019-03-18T20:50:58.927Z,100448.55
2019-03-18T20:56:31.335Z,100467.88
2019-03-18T20:59:21.181Z,100458.05
2019-03-18T21:02:10.101Z,100457.73
2019-03-18T21:05:00.019Z,100469.64
2019-03-18T21:07:30.183Z,100467.03
2019-03-18T21:10:20.808Z,100471.52
2019-03-18T21:16:20.952Z,100471.03
2019-03-18T21:18:53.299Z,100473.31
2019-03-18T21:21:27.313Z,100479.56
2019-03-18T21:24:23.369Z,100488.24
2019-03-18T21:27:12.744Z,100490.80
2019-03-18T21:29:43.460Z,100491.11
2019-03-18T21:32:14.299Z,100485.74
2019-03-18T21:35:03.850Z,100495.24
2019-03-18T21:37:34.568Z,100498.17
2019-03-18T21:40:25.063Z,100502.95
2019-03-18T21:43:29.310Z,100506.03
2019-03-18T21:51:41.566Z,100511.75
2019-03-18T21:54:34.406Z,100521.52
2019-03-18T21:57:04.138Z,100522.88
2019-03-18T21:59:44.327Z,100527.35
2019-03-18T22:02:34.812Z,100522.59
2019-03-18T22:05:24.545Z,100524.51
2019-03-18T22:08:14.567Z,100529.38
2019-03-18T22:11:04.384Z,100528.58
2019-03-18T22:13:36.088Z,100537.14
2019-03-18T22:16:08.630Z,100529.97
2019-03-18T22:18:39.276Z,100531.46
2019-03-18T22:24:44.914Z,100540.38
2019-03-18T22:27:07.010Z,100533.16
2019-03-18T22:30:32.737Z,100532.65
2019-03-18T22:32:51.905Z,100533.61
2019-03-18T22:35:25.148Z,100535.29
2019-03-18T22:37:58.368Z,100534.02
2019-03-18T22:40:30.066Z,100530.83
2019-03-18T22:43:18.958Z,100530.27
2019-03-18T22:46:11.068Z,100532.02
2019-03-18T22:48:52.252Z,100535.63
2019-03-18T22:54:55.639Z,100541.50
2019-03-18T22:57:38.224Z,100535.42
2019-03-18T23:00:33.797Z,100534.77
2019-03-18T23:03:05.383Z,100537.58
2019-03-18T23:05:56.222Z,100543.86
2019-03-18T23:08:27.795Z,100554.48
2019-03-18T23:10:59.480Z,100551.43
2019-03-18T23:13:50.760Z,100548.36
2019-03-18T23:22:15.068Z,100554.75
2019-03-18T23:24:46.934Z,100561.66
2019-03-18T23:27:19.758Z,100573.89
2019-03-18T23:35:51.118Z,100568.19
2019-03-18T23:38:20.944Z,100569.48
2019-03-18T23:41:10.878Z,100570.80
2019-03-18T23:46:25.686Z,100572.20
2019-03-18T23:48:55.671Z,100573.34
2019-03-18T23:51:26.955Z,100570.33
2019-03-18T23:53:58.749Z,100572.61
2019-03-18T23:56:29.477Z,100578.23
2019-03-18T23:59:19.416Z,100581.70
